createdAt,value
2017-11-21T00:02:23.158Z,7.60
2017-11-21T00:04:51.630Z,7.60
2017-11-21T00:07:19.965Z,7.60
2017-11-21T00:09:47.536Z,7.60
2017-11-21T00:12:16.116Z,7.60
2017-11-21T00:14:43.666Z,7.50
2017-11-21T00:17:12.070Z,7.60
2017-11-21T00:19:39.621Z,7.60
2017-11-21T00:22:07.961Z,7.60
2017-11-21T00:24:35.488Z,7.60
2017-11-21T00:27:03.821Z,7.60
2017-11-21T00:29:31.352Z,7.50
2017-11-21T00:31:59.700Z,7.50
2017-11-21T00:34:27.807Z,7.50
2017-11-21T00:36:55.369Z,7.50
2017-11-21T00:39:22.904Z,7.40
2017-11-21T00:41:50.481Z,7.20
2017-11-21T00:44:18.021Z,7.30
2017-11-21T00:46:46.365Z,7.10
2017-11-21T00:49:13.908Z,7.10
2017-11-21T00:51:41.488Z,7.00
2017-11-21T00:54:09.806Z,6.90
2017-11-21T00:56:37.380Z,7.00
2017-11-21T00:59:04.920Z,7.00
2017-11-21T01:01:32.494Z,7.00
2017-11-21T01:04:00.030Z,6.90
2017-11-21T01:06:27.597Z,7.00
2017-11-21T01:08:55.141Z,6.90
2017-11-21T01:11:22.753Z,6.90
2017-11-21T01:13:50.285Z,6.90
2017-11-21T01:16:17.919Z,7.10
2017-11-21T01:18:45.477Z,7.00
2017-11-21T01:21:14.769Z,6.80
2017-11-21T01:23:42.299Z,6.80
2017-11-21T01:26:09.867Z,6.90
2017-11-21T01:28:37.416Z,6.90
2017-11-21T01:31:05.760Z,6.80
2017-11-21T01:33:33.288Z,6.80
2017-11-21T01:36:00.858Z,6.90
2017-11-21T01:38:29.149Z,6.80
2017-11-21T01:40:56.717Z,6.70
2017-11-21T01:43:25.025Z,6.70
2017-11-21T01:45:52.588Z,6.70
2017-11-21T01:48:20.880Z,6.70
2017-11-21T01:50:48.474Z,6.70
2017-11-21T01:53:16.012Z,6.70
2017-11-21T01:55:44.349Z,6.70
2017-11-21T01:58:11.894Z,6.70
2017-11-21T02:00:39.456Z,6.80
2017-11-21T02:03:07.751Z,6.70
2017-11-21T02:05:35.343Z,6.70
2017-11-21T02:08:02.904Z,6.80
2017-11-21T02:10:30.432Z,6.70
2017-11-21T02:12:57.993Z,6.80
2017-11-21T02:15:25.521Z,6.80
2017-11-21T02:17:53.090Z,6.80
2017-11-21T02:20:20.655Z,6.90
2017-11-21T02:22:48.967Z,6.90
2017-11-21T02:25:16.547Z,6.90
2017-11-21T02:27:44.080Z,6.90
2017-11-21T02:30:12.259Z,6.90
2017-11-21T02:32:40.568Z,6.90
2017-11-21T02:35:09.153Z,6.90
2017-11-21T02:37:38.233Z,6.90
2017-11-21T02:40:06.560Z,6.90
2017-11-21T02:42:35.640Z,7.00
2017-11-21T02:45:03.201Z,7.00
2017-11-21T02:47:30.725Z,7.00
2017-11-21T02:49:59.976Z,7.00
2017-11-21T02:52:27.511Z,7.00
2017-11-21T02:54:55.095Z,7.10
2017-11-21T02:57:22.658Z,7.10
2017-11-21T02:59:51.020Z,7.20
2017-11-21T03:02:19.238Z,7.20
2017-11-21T03:04:47.577Z,7.20
2017-11-21T03:07:15.673Z,7.20
2017-11-21T03:09:44.076Z,7.20
2017-11-21T03:12:11.612Z,7.20
2017-11-21T03:14:39.172Z,7.20
2017-11-21T03:17:06.699Z,7.20
2017-11-21T03:19:34.264Z,7.20
2017-11-21T03:25:14.286Z,7.30
2017-11-21T03:30:43.066Z,7.20
2017-11-21T03:33:11.444Z,7.20
2017-11-21T03:35:38.969Z,7.20
2017-11-21T03:38:06.524Z,7.20
2017-11-21T03:40:34.062Z,7.20
2017-11-21T03:43:01.640Z,7.20
2017-11-21T03:45:29.173Z,7.20
2017-11-21T03:47:57.507Z,7.20
2017-11-21T03:50:25.028Z,7.20
2017-11-21T03:52:52.569Z,7.20
2017-11-21T03:55:20.148Z,7.30
2017-11-21T03:57:48.503Z,7.20
2017-11-21T04:00:16.081Z,7.20
2017-11-21T04:02:43.632Z,7.30
2017-11-21T04:05:11.975Z,7.40
2017-11-21T04:07:39.525Z,7.40
2017-11-21T04:10:07.102Z,7.40
2017-11-21T04:12:34.724Z,7.40
2017-11-21T04:15:03.115Z,7.30
2017-11-21T04:17:30.664Z,7.30
2017-11-21T04:19:58.236Z,7.40
2017-11-21T04:22:27.273Z,7.40
2017-11-21T04:24:55.646Z,7.50
2017-11-21T04:27:23.183Z,7.40
2017-11-21T04:29:50.757Z,7.50
2017-11-21T04:32:18.288Z,7.50
2017-11-21T04:34:45.861Z,7.50
2017-11-21T04:37:13.383Z,7.40
2017-11-21T04:39:41.222Z,7.50
2017-11-21T04:42:09.529Z,7.40
2017-11-21T04:44:37.110Z,7.40
2017-11-21T04:47:06.712Z,7.40
2017-11-21T04:49:35.056Z,7.40
2017-11-21T04:52:02.628Z,7.50
2017-11-21T04:54:30.197Z,7.50
2017-11-21T04:56:58.508Z,7.40
2017-11-21T04:59:26.068Z,7.40
2017-11-21T05:01:53.858Z,7.50
2017-11-21T05:04:21.432Z,7.50
2017-11-21T05:06:48.958Z,7.50
2017-11-21T05:09:17.377Z,7.50
2017-11-21T05:11:44.915Z,7.50
2017-11-21T05:14:12.510Z,7.50
2017-11-21T05:16:40.036Z,7.40
2017-11-21T05:19:07.606Z,7.40
2017-11-21T05:21:35.917Z,7.40
2017-11-21T05:24:03.592Z,7.40
2017-11-21T05:26:31.141Z,7.40
2017-11-21T05:28:58.720Z,7.40
2017-11-21T05:31:27.029Z,7.40
2017-11-21T05:33:55.365Z,7.40
2017-11-21T05:36:22.885Z,7.40
2017-11-21T05:38:50.460Z,7.30
2017-11-21T05:41:18.748Z,7.30
2017-11-21T05:43:47.096Z,7.20
2017-11-21T05:46:14.636Z,7.20
2017-11-21T05:48:42.205Z,7.30
2017-11-21T05:51:09.742Z,7.20
2017-11-21T05:53:37.344Z,7.30
2017-11-21T05:56:04.913Z,7.40
2017-11-21T05:58:32.497Z,7.40
2017-11-21T06:01:00.029Z,7.40
2017-11-21T06:03:27.589Z,7.40
2017-11-21T06:05:55.118Z,7.30
2017-11-21T06:08:22.673Z,7.50
2017-11-21T06:10:50.969Z,7.30
2017-11-21T06:13:19.322Z,7.30
2017-11-21T06:15:46.867Z,7.50
2017-11-21T06:18:14.438Z,7.50
2017-11-21T06:20:41.965Z,7.60
2017-11-21T06:23:10.293Z,7.50
2017-11-21T06:25:37.833Z,7.50
2017-11-21T06:28:06.186Z,7.60
2017-11-21T06:30:34.504Z,7.50
2017-11-21T06:33:02.848Z,7.50
2017-11-21T06:35:30.386Z,7.50
2017-11-21T06:37:58.676Z,7.40
2017-11-21T06:40:26.233Z,7.40
2017-11-21T06:42:55.496Z,7.40
2017-11-21T06:45:23.057Z,7.40
2017-11-21T06:47:50.580Z,7.40
2017-11-21T06:50:18.148Z,7.50
2017-11-21T06:52:45.665Z,7.60
2017-11-21T06:55:13.227Z,7.50
2017-11-21T06:57:41.528Z,7.40
2017-11-21T07:00:09.096Z,7.50
2017-11-21T07:02:36.642Z,7.60
2017-11-21T07:05:04.227Z,7.50
2017-11-21T07:07:33.403Z,7.50
2017-11-21T07:10:00.969Z,7.50
2017-11-21T07:12:28.500Z,7.50
2017-11-21T07:14:57.020Z,7.40
2017-11-21T07:17:24.541Z,7.40
2017-11-21T07:19:52.871Z,7.60
2017-11-21T07:22:22.237Z,7.60
2017-11-21T07:24:49.809Z,7.70
2017-11-21T07:27:17.332Z,7.70
2017-11-21T07:29:44.887Z,7.70
2017-11-21T07:32:12.456Z,7.70
2017-11-21T07:34:39.985Z,7.80
2017-11-21T07:37:07.542Z,7.80
2017-11-21T07:39:35.081Z,7.80
2017-11-21T07:42:02.869Z,7.80
2017-11-21T07:44:30.448Z,7.80
2017-11-21T07:46:57.978Z,7.90
2017-11-21T07:49:26.084Z,7.90
2017-11-21T07:51:53.627Z,8.00
2017-11-21T07:54:21.192Z,8.10
2017-11-21T07:56:49.628Z,8.00
2017-11-21T07:59:17.219Z,8.00
2017-11-21T08:01:45.633Z,8.10
2017-11-21T08:04:13.192Z,8.10
2017-11-21T08:06:40.714Z,8.10
2017-11-21T08:09:08.529Z,8.10
2017-11-21T08:11:36.052Z,8.10
2017-11-21T08:14:04.802Z,8.10
2017-11-21T08:16:33.529Z,8.10
2017-11-21T08:19:01.097Z,8.20
2017-11-21T08:21:28.631Z,8.30
2017-11-21T08:23:56.189Z,8.30
2017-11-21T08:26:24.482Z,8.40
2017-11-21T08:28:52.804Z,8.40
2017-11-21T08:31:20.672Z,8.40
2017-11-21T08:33:49.624Z,8.40
2017-11-21T08:36:17.180Z,8.40
2017-11-21T08:38:44.706Z,8.60
2017-11-21T08:41:12.273Z,8.70
2017-11-21T08:43:40.593Z,8.60
2017-11-21T08:46:08.161Z,8.60
2017-11-21T08:48:36.003Z,8.60
2017-11-21T08:51:04.301Z,8.70
2017-11-21T08:53:32.624Z,8.80
2017-11-21T08:56:00.740Z,8.80
2017-11-21T08:58:28.315Z,8.80
2017-11-21T09:00:55.846Z,8.90
2017-11-21T09:03:23.409Z,8.90
2017-11-21T09:05:50.989Z,9.00
2017-11-21T09:08:18.545Z,9.00
2017-11-21T09:10:47.158Z,9.10
2017-11-21T09:13:14.732Z,9.10
2017-11-21T09:15:42.306Z,9.10
2017-11-21T09:18:11.060Z,9.20
2017-11-21T09:20:39.159Z,9.30
2017-11-21T09:23:07.512Z,9.40
2017-11-21T09:25:35.084Z,9.40
2017-11-21T09:28:02.697Z,9.50
2017-11-21T09:30:30.999Z,9.60
2017-11-21T09:32:58.576Z,9.60
2017-11-21T09:35:27.264Z,9.70
2017-11-21T09:37:55.681Z,9.90
2017-11-21T09:40:23.208Z,9.80
2017-11-21T09:42:50.790Z,9.90
2017-11-21T09:45:19.125Z,10.00
2017-11-21T09:47:46.661Z,10.00
2017-11-21T09:50:14.991Z,10.10
2017-11-21T09:52:42.920Z,10.10
2017-11-21T09:55:10.501Z,10.20
2017-11-21T09:57:38.797Z,10.40
2017-11-21T10:00:08.040Z,10.50
2017-11-21T10:02:35.576Z,10.40
2017-11-21T10:05:03.895Z,10.50
2017-11-21T10:07:31.457Z,10.50
2017-11-21T10:09:58.981Z,10.50
2017-11-21T10:12:26.545Z,10.50
2017-11-21T10:14:54.070Z,10.60
2017-11-21T10:17:21.880Z,10.60
2017-11-21T10:19:49.436Z,10.60
2017-11-21T10:22:17.032Z,10.50
2017-11-21T10:24:44.616Z,10.40
2017-11-21T10:27:12.209Z,10.40
2017-11-21T10:29:40.920Z,10.30
2017-11-21T10:32:09.259Z,10.50
2017-11-21T10:34:36.810Z,10.50
2017-11-21T10:37:04.382Z,10.70
2017-11-21T10:39:33.892Z,10.70
2017-11-21T10:42:01.467Z,10.80
2017-11-21T10:44:29.004Z,10.90
2017-11-21T10:46:57.560Z,11.10
2017-11-21T10:49:25.088Z,11.20
2017-11-21T10:51:54.374Z,11.40
2017-11-21T10:54:22.498Z,11.40
2017-11-21T10:56:50.841Z,11.50
2017-11-21T10:59:19.373Z,11.50
2017-11-21T11:01:47.712Z,11.30
2017-11-21T11:04:15.264Z,11.30
2017-11-21T11:06:42.832Z,11.40
2017-11-21T11:09:10.369Z,11.50
2017-11-21T11:11:37.937Z,11.60
2017-11-21T11:14:05.478Z,11.70
2017-11-21T11:16:33.050Z,11.80
2017-11-21T11:19:00.580Z,11.90
2017-11-21T11:21:28.925Z,12.00
2017-11-21T11:23:56.462Z,12.00
2017-11-21T11:26:24.038Z,12.00
2017-11-21T11:28:51.604Z,12.10
2017-11-21T11:31:19.173Z,12.00
2017-11-21T11:33:46.704Z,12.00
2017-11-21T11:36:14.281Z,12.10
2017-11-21T11:38:41.825Z,12.20
2017-11-21T11:41:10.154Z,12.10
2017-11-21T11:43:37.763Z,12.10
2017-11-21T11:46:05.333Z,12.20
2017-11-21T11:48:32.874Z,12.20
2017-11-21T11:51:00.449Z,12.20
2017-11-21T11:53:30.208Z,12.20
2017-11-21T11:55:57.816Z,12.20
2017-11-21T11:58:25.369Z,12.20
2017-11-21T12:00:52.945Z,12.20
2017-11-21T12:03:20.477Z,12.20
2017-11-21T12:05:48.821Z,12.40
2017-11-21T12:08:16.352Z,12.30
2017-11-21T12:10:43.922Z,12.40
2017-11-21T12:13:12.015Z,12.40
2017-11-21T12:15:40.469Z,12.50
2017-11-21T12:18:08.001Z,12.40
2017-11-21T12:20:36.721Z,12.40
2017-11-21T12:23:04.252Z,12.40
2017-11-21T12:25:31.820Z,12.40
2017-11-21T12:28:00.215Z,12.30
2017-11-21T12:30:28.621Z,12.30
2017-11-21T12:32:58.454Z,12.30
2017-11-21T12:35:26.025Z,12.40
2017-11-21T12:37:54.446Z,12.30
2017-11-21T12:40:23.171Z,12.30
2017-11-21T12:42:51.518Z,12.30
2017-11-21T12:45:19.085Z,12.30
2017-11-21T12:47:46.655Z,12.30
2017-11-21T12:50:14.278Z,12.30
2017-11-21T12:52:42.585Z,12.30
2017-11-21T12:55:10.760Z,12.30
2017-11-21T12:57:39.052Z,12.40
2017-11-21T13:00:07.468Z,12.40
2017-11-21T13:02:34.999Z,12.40
2017-11-21T13:05:02.569Z,12.70
2017-11-21T13:07:30.100Z,12.70
2017-11-21T13:09:57.697Z,12.70
2017-11-21T13:12:25.237Z,12.70
2017-11-21T13:14:52.800Z,12.80
2017-11-21T13:17:20.345Z,12.80
2017-11-21T13:19:48.709Z,13.10
2017-11-21T13:22:16.688Z,13.10
2017-11-21T13:24:44.265Z,13.20
2017-11-21T13:27:11.815Z,13.40
2017-11-21T13:29:39.408Z,13.50
2017-11-21T13:32:06.956Z,13.50
2017-11-21T13:34:34.540Z,13.50
2017-11-21T13:37:02.881Z,13.40
2017-11-21T13:39:31.230Z,13.50
2017-11-21T13:41:58.766Z,13.50
2017-11-21T13:44:26.341Z,13.60
2017-11-21T13:46:53.896Z,13.60
2017-11-21T13:49:21.474Z,13.60
2017-11-21T13:51:49.011Z,13.70
2017-11-21T13:54:16.591Z,13.70
2017-11-21T13:56:44.136Z,13.70
2017-11-21T13:59:12.113Z,13.70
2017-11-21T14:01:39.689Z,13.70
2017-11-21T14:04:07.247Z,13.70
2017-11-21T14:06:35.606Z,13.70
2017-11-21T14:09:03.144Z,13.70
2017-11-21T14:11:30.715Z,13.70
2017-11-21T14:13:58.968Z,13.70
2017-11-21T14:16:27.113Z,13.70
2017-11-21T14:18:55.436Z,13.60
2017-11-21T14:21:23.037Z,13.60
2017-11-21T14:23:50.626Z,13.60
2017-11-21T14:26:18.253Z,13.60
2017-11-21T14:28:45.929Z,13.60
2017-11-21T14:31:13.463Z,13.50
2017-11-21T14:33:41.816Z,13.40
2017-11-21T14:36:09.369Z,13.40
2017-11-21T14:38:36.954Z,13.30
2017-11-21T14:41:04.492Z,13.20
2017-11-21T14:43:32.080Z,13.20
2017-11-21T14:46:00.111Z,13.20
2017-11-21T14:48:27.683Z,13.10
2017-11-21T14:50:55.269Z,13.20
2017-11-21T14:53:22.847Z,13.10
2017-11-21T14:55:51.274Z,13.10
2017-11-21T14:58:18.934Z,13.00
2017-11-21T15:00:47.707Z,12.90
2017-11-21T15:03:15.293Z,12.80
2017-11-21T15:05:42.869Z,12.90
2017-11-21T15:08:12.121Z,12.80
2017-11-21T15:10:39.788Z,12.80
2017-11-21T15:13:08.233Z,12.70
2017-11-21T15:15:35.793Z,12.70
2017-11-21T15:18:03.321Z,12.60
2017-11-21T15:20:30.889Z,12.60
2017-11-21T15:22:58.428Z,12.40
2017-11-21T15:25:26.768Z,12.10
2017-11-21T15:27:54.361Z,12.10
2017-11-21T15:30:21.930Z,12.00
2017-11-21T15:32:49.505Z,11.90
2017-11-21T15:35:17.105Z,11.70
2017-11-21T15:37:44.646Z,11.60
2017-11-21T15:40:12.213Z,11.50
2017-11-21T15:42:39.749Z,11.30
2017-11-21T15:45:07.346Z,11.10
2017-11-21T15:47:34.873Z,11.10
2017-11-21T15:50:02.450Z,10.90
2017-11-21T15:52:29.992Z,10.80
2017-11-21T15:54:57.573Z,10.60
2017-11-21T15:57:25.111Z,10.50
2017-11-21T15:59:52.691Z,10.30
2017-11-21T16:02:20.233Z,10.20
2017-11-21T16:04:48.577Z,10.10
2017-11-21T16:07:16.124Z,10.10
2017-11-21T16:09:43.697Z,10.20
2017-11-21T16:12:11.238Z,10.30
2017-11-21T16:14:39.581Z,10.10
2017-11-21T16:17:07.120Z,10.00
2017-11-21T16:19:34.689Z,10.00
2017-11-21T16:22:02.233Z,9.90
2017-11-21T16:24:29.805Z,10.10
2017-11-21T16:26:57.333Z,10.10
2017-11-21T16:29:24.966Z,10.00
2017-11-21T16:31:53.335Z,10.20
2017-11-21T16:34:20.976Z,10.20
2017-11-21T16:36:48.546Z,10.30
2017-11-21T16:39:16.093Z,10.10
2017-11-21T16:41:43.674Z,10.10
2017-11-21T16:44:11.213Z,10.20
2017-11-21T16:46:38.798Z,10.30
2017-11-21T16:49:09.017Z,10.10
2017-11-21T16:51:36.594Z,10.10
2017-11-21T16:54:04.137Z,10.00
2017-11-21T16:56:31.701Z,9.80
2017-11-21T16:58:59.232Z,9.80
2017-11-21T17:01:29.230Z,9.60
2017-11-21T17:03:57.566Z,9.30
2017-11-21T17:06:25.138Z,9.30
2017-11-21T17:08:53.629Z,9.40
2017-11-21T17:11:22.824Z,9.60
2017-11-21T17:13:51.138Z,9.50
2017-11-21T17:16:18.714Z,9.50
2017-11-21T17:18:47.015Z,9.60
2017-11-21T17:21:14.582Z,9.60
2017-11-21T17:23:42.119Z,9.50
2017-11-21T17:26:11.390Z,9.30
2017-11-21T17:28:39.710Z,9.30
2017-11-21T17:31:07.289Z,9.30
2017-11-21T17:33:34.804Z,9.10
2017-11-21T17:36:02.995Z,9.10
2017-11-21T17:38:30.528Z,9.00
2017-11-21T17:40:58.661Z,9.00
2017-11-21T17:43:27.283Z,8.80
2017-11-21T17:45:54.883Z,8.80
2017-11-21T17:48:23.193Z,8.60
2017-11-21T17:50:51.756Z,8.50
2017-11-21T17:53:19.294Z,8.50
2017-11-21T17:55:47.857Z,8.50
2017-11-21T17:58:16.148Z,8.40
2017-11-21T18:00:44.477Z,8.30
2017-11-21T18:03:12.010Z,8.30
2017-11-21T18:05:40.332Z,8.10
2017-11-21T18:08:07.865Z,8.10
2017-11-21T18:10:36.198Z,8.00
2017-11-21T18:13:03.732Z,8.00
2017-11-21T18:15:32.856Z,7.90
2017-11-21T18:18:01.159Z,7.80
2017-11-21T18:20:28.731Z,7.80
2017-11-21T18:22:58.286Z,7.80
2017-11-21T18:25:26.308Z,7.80
2017-11-21T18:27:54.784Z,7.70
2017-11-21T18:30:23.892Z,7.70
2017-11-21T18:33:02.067Z,7.60
2017-11-21T18:35:29.629Z,7.60
2017-11-21T18:37:57.417Z,7.50
2017-11-21T18:40:24.992Z,7.50
2017-11-21T18:42:52.522Z,7.50
2017-11-21T18:45:20.116Z,7.50
2017-11-21T18:47:47.702Z,7.50
2017-11-21T18:50:27.246Z,7.50
2017-11-21T18:52:55.601Z,7.50
2017-11-21T18:55:23.202Z,7.40
2017-11-21T18:57:50.767Z,7.40
2017-11-21T19:00:20.058Z,7.50
2017-11-21T19:02:47.593Z,7.50
2017-11-21T19:05:15.157Z,7.50
2017-11-21T19:07:42.849Z,7.50
2017-11-21T19:10:11.101Z,7.50
2017-11-21T19:12:39.489Z,7.60
2017-11-21T19:15:08.836Z,7.60
2017-11-21T19:17:36.401Z,7.50
2017-11-21T19:20:03.997Z,7.60
2017-11-21T19:22:31.537Z,7.60
2017-11-21T19:24:59.671Z,7.60
2017-11-21T19:27:27.508Z,7.70
2017-11-21T19:29:55.443Z,7.70
2017-11-21T19:32:22.980Z,7.60
2017-11-21T19:34:50.551Z,7.60
2017-11-21T19:37:18.539Z,7.70
2017-11-21T19:39:46.968Z,7.70
2017-11-21T19:42:15.347Z,7.70
2017-11-21T19:44:42.960Z,7.70
2017-11-21T19:47:11.380Z,7.70
2017-11-21T19:49:38.957Z,7.70
2017-11-21T19:52:06.486Z,7.80
2017-11-21T19:54:34.824Z,7.70
2017-11-21T19:57:02.359Z,7.60
2017-11-21T19:59:30.696Z,7.70
2017-11-21T20:01:58.232Z,7.70
2017-11-21T20:04:25.821Z,7.70
2017-11-21T20:06:53.363Z,7.90
2017-11-21T20:09:24.567Z,7.90
2017-11-21T20:11:52.105Z,7.90
2017-11-21T20:14:22.480Z,7.90
2017-11-21T20:16:50.021Z,7.80
2017-11-21T20:19:17.617Z,7.80
2017-11-21T20:21:45.151Z,7.90
2017-11-21T20:24:12.717Z,8.00
2017-11-21T20:26:40.254Z,8.10
2017-11-21T20:29:07.878Z,8.00
2017-11-21T20:31:36.178Z,8.00
2017-11-21T20:34:04.506Z,8.00
2017-11-21T20:36:32.033Z,8.00
2017-11-21T20:39:00.836Z,8.10
2017-11-21T20:41:28.511Z,8.10
2017-11-21T20:43:56.855Z,8.00
2017-11-21T20:46:24.400Z,8.00
2017-11-21T20:48:52.004Z,8.00
2017-11-21T20:51:19.677Z,8.00
2017-11-21T20:53:48.250Z,8.00
2017-11-21T20:56:15.784Z,8.10
2017-11-21T20:58:43.372Z,8.10
2017-11-21T21:01:11.718Z,8.20
2017-11-21T21:03:40.481Z,8.10
2017-11-21T21:06:08.033Z,8.50
2017-11-21T21:08:36.365Z,8.40
2017-11-21T21:11:03.901Z,8.40
2017-11-21T21:13:32.297Z,8.30
2017-11-21T21:16:01.551Z,8.30
2017-11-21T21:18:29.204Z,8.30
2017-11-21T21:20:56.758Z,8.30
2017-11-21T21:23:24.342Z,8.30
2017-11-21T21:25:51.977Z,8.40
2017-11-21T21:28:19.566Z,8.40
2017-11-21T21:30:47.883Z,8.30
2017-11-21T21:33:15.474Z,8.30
2017-11-21T21:35:43.018Z,8.30
2017-11-21T21:38:10.673Z,8.40
2017-11-21T21:40:38.968Z,8.50
2017-11-21T21:43:07.302Z,8.50
2017-11-21T21:45:35.620Z,8.50
2017-11-21T21:48:03.199Z,8.50
2017-11-21T21:50:31.653Z,8.60
2017-11-21T21:52:59.223Z,8.60
2017-11-21T21:55:27.926Z,8.70
2017-11-21T21:57:55.524Z,8.80
2017-11-21T22:00:23.074Z,8.80
2017-11-21T22:02:50.644Z,9.00
2017-11-21T22:05:18.184Z,9.10
2017-11-21T22:07:46.601Z,8.90
2017-11-21T22:10:14.157Z,8.90
2017-11-21T22:12:42.760Z,8.90
2017-11-21T22:15:11.339Z,8.90
2017-11-21T22:17:39.681Z,8.70
2017-11-21T22:20:08.774Z,8.70
2017-11-21T22:22:36.337Z,8.60
2017-11-21T22:25:03.905Z,8.70
2017-11-21T22:27:32.235Z,8.70
2017-11-21T22:29:59.770Z,8.70
2017-11-21T22:32:28.103Z,8.70
2017-11-21T22:34:55.671Z,8.70
2017-11-21T22:37:23.249Z,8.70
2017-11-21T22:39:51.410Z,8.60
2017-11-21T22:42:20.151Z,8.60
2017-11-21T22:44:47.768Z,8.70
2017-11-21T22:47:16.130Z,8.90
2017-11-21T22:49:43.665Z,8.90
2017-11-21T22:52:11.260Z,9.00
2017-11-21T22:54:38.796Z,9.00
2017-11-21T22:57:06.369Z,9.00
2017-11-21T22:59:33.943Z,8.90
2017-11-21T23:02:02.474Z,8.90
2017-11-21T23:04:30.009Z,8.80
2017-11-21T23:06:59.289Z,8.70
2017-11-21T23:09:27.340Z,8.70
2017-11-21T23:11:54.908Z,8.70
2017-11-21T23:14:23.303Z,8.70
2017-11-21T23:16:50.900Z,8.60
2017-11-21T23:19:19.345Z,8.60
2017-11-21T23:21:46.921Z,8.60
2017-11-21T23:24:15.206Z,8.70
2017-11-21T23:26:42.769Z,8.80
2017-11-21T23:29:11.152Z,8.60
2017-11-21T23:31:39.493Z,8.70
2017-11-21T23:34:07.018Z,8.60
2017-11-21T23:36:35.352Z,8.60
2017-11-21T23:39:02.876Z,8.60
2017-11-21T23:41:31.171Z,8.40
2017-11-21T23:43:59.501Z,8.40
2017-11-21T23:46:27.024Z,8.40
2017-11-21T23:48:55.365Z,8.30
2017-11-21T23:51:22.896Z,8.20
2017-11-21T23:53:51.248Z,8.40
2017-11-21T23:56:18.860Z,8.40
2017-11-21T23:58:47.194Z,8.30
